sensor_id;sensor_type;location;lat;lon;timestamp;P1;durP1;ratioP1;P2;durP2;ratioP2
5995;SDS011;3026;53.612;7.278;2022-09-13T00:01:02;16.27;;;13.20;;
5995;SDS011;3026;53.612;7.278;2022-09-13T00:03:29;18.43;;;13.10;;
5995;SDS011;3026;53.612;7.278;2022-09-13T00:05:56;17.30;;;13.50;;
5995;SDS011;3026;53.612;7.278;2022-09-13T00:08:25;14.93;;;12.07;;
5995;SDS011;3026;53.612;7.278;2022-09-13T00:10:51;16.63;;;13.37;;
5995;SDS011;3026;53.612;7.278;2022-09-13T00:13:18;14.67;;;12.00;;
5995;SDS011;3026;53.612;7.278;2022-09-13T00:15:46;15.73;;;12.23;;
5995;SDS011;3026;53.612;7.278;2022-09-13T00:18:14;16.07;;;13.13;;
5995;SDS011;3026;53.612;7.278;2022-09-13T00:20:43;16.70;;;12.50;;
5995;SDS011;3026;53.612;7.278;2022-09-13T00:23:10;14.87;;;11.07;;
5995;SDS011;3026;53.612;7.278;2022-09-13T00:25:38;14.63;;;11.53;;
5995;SDS011;3026;53.612;7.278;2022-09-13T00:28:05;15.00;;;11.00;;
5995;SDS011;3026;53.612;7.278;2022-09-13T00:30:33;15.10;;;9.40;;
5995;SDS011;3026;53.612;7.278;2022-09-13T00:33:00;13.83;;;8.07;;
5995;SDS011;3026;53.612;7.278;2022-09-13T00:35:28;12.47;;;8.00;;
5995;SDS011;3026;53.612;7.278;2022-09-13T00:37:57;9.00;;;7.30;;
5995;SDS011;3026;53.612;7.278;2022-09-13T00:40:24;10.80;;;8.20;;
5995;SDS011;3026;53.612;7.278;2022-09-13T00:42:53;10.50;;;7.63;;
5995;SDS011;3026;53.612;7.278;2022-09-13T00:45:19;10.67;;;7.47;;
5995;SDS011;3026;53.612;7.278;2022-09-13T00:47:47;10.80;;;7.13;;
5995;SDS011;3026;53.612;7.278;2022-09-13T00:50:19;8.30;;;6.90;;
5995;SDS011;3026;53.612;7.278;2022-09-13T00:52:49;8.03;;;6.47;;
5995;SDS011;3026;53.612;7.278;2022-09-13T00:55:22;12.13;;;7.20;;
5995;SDS011;3026;53.612;7.278;2022-09-13T00:57:54;9.17;;;7.63;;
5995;SDS011;3026;53.612;7.278;2022-09-13T01:00:27;10.03;;;6.87;;
5995;SDS011;3026;53.612;7.278;2022-09-13T01:02:55;9.67;;;7.27;;
5995;SDS011;3026;53.612;7.278;2022-09-13T01:05:24;9.97;;;7.37;;
5995;SDS011;3026;53.612;7.278;2022-09-13T01:07:54;14.80;;;7.80;;
5995;SDS011;3026;53.612;7.278;2022-09-13T01:10:22;13.57;;;7.70;;
5995;SDS011;3026;53.612;7.278;2022-09-13T01:12:50;8.93;;;7.13;;
5995;SDS011;3026;53.612;7.278;2022-09-13T01:15:22;10.33;;;6.67;;
5995;SDS011;3026;53.612;7.278;2022-09-13T01:17:49;7.63;;;6.60;;
5995;SDS011;3026;53.612;7.278;2022-09-13T01:20:18;14.13;;;7.57;;
5995;SDS011;3026;53.612;7.278;2022-09-13T01:23:02;11.03;;;7.00;;
5995;SDS011;3026;53.612;7.278;2022-09-13T01:32:03;7.70;;;6.63;;
5995;SDS011;3026;53.612;7.278;2022-09-13T01:34:39;8.70;;;7.60;;
5995;SDS011;3026;53.612;7.278;2022-09-13T01:37:23;8.30;;;7.40;;
5995;SDS011;3026;53.612;7.278;2022-09-13T01:40:09;13.90;;;9.10;;
5995;SDS011;3026;53.612;7.278;2022-09-13T01:42:47;10.63;;;8.70;;
5995;SDS011;3026;53.612;7.278;2022-09-13T01:45:23;12.27;;;10.03;;
5995;SDS011;3026;53.612;7.278;2022-09-13T01:47:59;12.00;;;10.27;;
5995;SDS011;3026;53.612;7.278;2022-09-13T01:50:36;15.60;;;9.90;;
5995;SDS011;3026;53.612;7.278;2022-09-13T01:53:09;15.50;;;10.33;;
5995;SDS011;3026;53.612;7.278;2022-09-13T01:55:41;18.57;;;12.43;;
5995;SDS011;3026;53.612;7.278;2022-09-13T01:58:16;14.87;;;11.40;;
5995;SDS011;3026;53.612;7.278;2022-09-13T02:00:50;14.57;;;10.60;;
5995;SDS011;3026;53.612;7.278;2022-09-13T02:03:24;12.97;;;10.30;;
5995;SDS011;3026;53.612;7.278;2022-09-13T02:05:54;12.33;;;9.43;;
5995;SDS011;3026;53.612;7.278;2022-09-13T02:08:24;10.50;;;7.77;;
5995;SDS011;3026;53.612;7.278;2022-09-13T02:11:04;8.03;;;6.30;;
5995;SDS011;3026;53.612;7.278;2022-09-13T02:13:35;7.13;;;4.80;;
5995;SDS011;3026;53.612;7.278;2022-09-13T02:16:07;6.30;;;3.20;;
5995;SDS011;3026;53.612;7.278;2022-09-13T02:18:40;2.87;;;1.90;;
5995;SDS011;3026;53.612;7.278;2022-09-13T02:21:10;2.00;;;1.30;;
5995;SDS011;3026;53.612;7.278;2022-09-13T02:23:40;3.03;;;1.37;;
5995;SDS011;3026;53.612;7.278;2022-09-13T02:26:13;2.20;;;1.20;;
5995;SDS011;3026;53.612;7.278;2022-09-13T02:28:41;2.50;;;0.90;;
5995;SDS011;3026;53.612;7.278;2022-09-13T02:31:12;4.43;;;1.00;;
5995;SDS011;3026;53.612;7.278;2022-09-13T02:33:44;2.17;;;1.00;;
5995;SDS011;3026;53.612;7.278;2022-09-13T02:36:19;2.53;;;0.97;;
5995;SDS011;3026;53.612;7.278;2022-09-13T02:38:49;4.07;;;1.00;;
5995;SDS011;3026;53.612;7.278;2022-09-13T02:41:22;3.13;;;0.97;;
5995;SDS011;3026;53.612;7.278;2022-09-13T02:43:54;3.47;;;1.00;;
5995;SDS011;3026;53.612;7.278;2022-09-13T02:46:33;2.73;;;0.90;;
5995;SDS011;3026;53.612;7.278;2022-09-13T02:49:16;2.17;;;0.90;;
5995;SDS011;3026;53.612;7.278;2022-09-13T02:51:51;4.20;;;1.10;;
5995;SDS011;3026;53.612;7.278;2022-09-13T02:54:24;3.93;;;0.80;;
5995;SDS011;3026;53.612;7.278;2022-09-13T02:56:57;3.33;;;1.00;;
5995;SDS011;3026;53.612;7.278;2022-09-13T02:59:29;8.67;;;1.47;;
5995;SDS011;3026;53.612;7.278;2022-09-13T03:01:57;2.50;;;0.90;;
5995;SDS011;3026;53.612;7.278;2022-09-13T03:04:30;2.17;;;1.17;;
5995;SDS011;3026;53.612;7.278;2022-09-13T03:06:58;6.57;;;1.53;;
5995;SDS011;3026;53.612;7.278;2022-09-13T03:09:25;3.00;;;1.23;;
5995;SDS011;3026;53.612;7.278;2022-09-13T03:12:00;2.00;;;0.80;;
5995;SDS011;3026;53.612;7.278;2022-09-13T03:14:55;2.67;;;0.90;;
5995;SDS011;3026;53.612;7.278;2022-09-13T03:17:29;3.87;;;1.77;;
5995;SDS011;3026;53.612;7.278;2022-09-13T03:20:10;4.43;;;0.80;;
5995;SDS011;3026;53.612;7.278;2022-09-13T03:22:55;3.40;;;0.90;;
5995;SDS011;3026;53.612;7.278;2022-09-13T03:25:38;2.10;;;0.80;;
5995;SDS011;3026;53.612;7.278;2022-09-13T03:28:18;2.57;;;0.83;;
5995;SDS011;3026;53.612;7.278;2022-09-13T03:30:54;4.00;;;1.03;;
5995;SDS011;3026;53.612;7.278;2022-09-13T03:33:28;2.30;;;1.00;;
5995;SDS011;3026;53.612;7.278;2022-09-13T03:36:03;2.50;;;0.90;;
5995;SDS011;3026;53.612;7.278;2022-09-13T03:38:38;2.10;;;0.90;;
5995;SDS011;3026;53.612;7.278;2022-09-13T03:41:11;2.47;;;0.90;;
5995;SDS011;3026;53.612;7.278;2022-09-13T03:43:41;6.10;;;0.97;;
5995;SDS011;3026;53.612;7.278;2022-09-13T03:46:14;4.03;;;1.10;;
5995;SDS011;3026;53.612;7.278;2022-09-13T03:48:44;5.93;;;1.10;;
5995;SDS011;3026;53.612;7.278;2022-09-13T03:51:14;3.30;;;1.00;;
5995;SDS011;3026;53.612;7.278;2022-09-13T03:53:42;3.03;;;0.70;;
5995;SDS011;3026;53.612;7.278;2022-09-13T03:56:14;4.03;;;1.20;;
5995;SDS011;3026;53.612;7.278;2022-09-13T03:58:42;2.57;;;1.23;;
5995;SDS011;3026;53.612;7.278;2022-09-13T04:01:09;3.50;;;1.13;;
5995;SDS011;3026;53.612;7.278;2022-09-13T04:03:36;7.13;;;1.13;;
5995;SDS011;3026;53.612;7.278;2022-09-13T04:06:04;5.93;;;1.10;;
5995;SDS011;3026;53.612;7.278;2022-09-13T04:08:32;5.27;;;1.37;;
5995;SDS011;3026;53.612;7.278;2022-09-13T04:10:59;5.87;;;1.23;;
5995;SDS011;3026;53.612;7.278;2022-09-13T04:13:26;3.10;;;0.97;;
5995;SDS011;3026;53.612;7.278;2022-09-13T04:15:53;3.93;;;0.80;;
5995;SDS011;3026;53.612;7.278;2022-09-13T04:18:20;3.13;;;1.03;;
5995;SDS011;3026;53.612;7.278;2022-09-13T04:20:52;2.27;;;0.83;;
5995;SDS011;3026;53.612;7.278;2022-09-13T04:23:19;3.93;;;1.03;;
5995;SDS011;3026;53.612;7.278;2022-09-13T04:25:48;3.30;;;1.23;;
5995;SDS011;3026;53.612;7.278;2022-09-13T04:28:16;3.90;;;1.20;;
5995;SDS011;3026;53.612;7.278;2022-09-13T04:30:43;5.60;;;1.10;;
5995;SDS011;3026;53.612;7.278;2022-09-13T04:33:10;5.53;;;1.23;;
5995;SDS011;3026;53.612;7.278;2022-09-13T04:35:37;6.20;;;1.90;;
5995;SDS011;3026;53.612;7.278;2022-09-13T04:38:05;9.00;;;1.60;;
5995;SDS011;3026;53.612;7.278;2022-09-13T04:40:33;7.33;;;1.40;;
5995;SDS011;3026;53.612;7.278;2022-09-13T04:43:02;6.77;;;1.30;;
5995;SDS011;3026;53.612;7.278;2022-09-13T04:45:29;5.57;;;1.70;;
5995;SDS011;3026;53.612;7.278;2022-09-13T04:47:56;7.83;;;1.20;;
5995;SDS011;3026;53.612;7.278;2022-09-13T04:50:23;7.33;;;1.40;;
5995;SDS011;3026;53.612;7.278;2022-09-13T04:52:53;6.10;;;1.80;;
5995;SDS011;3026;53.612;7.278;2022-09-13T04:55:20;3.40;;;1.23;;
5995;SDS011;3026;53.612;7.278;2022-09-13T04:57:53;7.80;;;1.60;;
5995;SDS011;3026;53.612;7.278;2022-09-13T05:00:22;5.70;;;1.30;;
5995;SDS011;3026;53.612;7.278;2022-09-13T05:02:53;4.70;;;1.00;;
5995;SDS011;3026;53.612;7.278;2022-09-13T05:05:20;8.10;;;1.47;;
5995;SDS011;3026;53.612;7.278;2022-09-13T05:07:48;7.90;;;1.93;;
5995;SDS011;3026;53.612;7.278;2022-09-13T05:10:15;4.70;;;1.13;;
5995;SDS011;3026;53.612;7.278;2022-09-13T05:12:42;4.63;;;1.23;;
5995;SDS011;3026;53.612;7.278;2022-09-13T05:15:09;4.37;;;1.20;;
5995;SDS011;3026;53.612;7.278;2022-09-13T05:17:38;7.23;;;1.37;;
5995;SDS011;3026;53.612;7.278;2022-09-13T05:20:05;7.10;;;1.57;;
5995;SDS011;3026;53.612;7.278;2022-09-13T05:22:32;1.47;;;1.10;;
5995;SDS011;3026;53.612;7.278;2022-09-13T05:24:59;8.33;;;1.47;;
5995;SDS011;3026;53.612;7.278;2022-09-13T05:27:26;2.13;;;1.20;;
5995;SDS011;3026;53.612;7.278;2022-09-13T05:29:52;4.90;;;1.10;;
5995;SDS011;3026;53.612;7.278;2022-09-13T05:32:19;3.90;;;1.00;;
5995;SDS011;3026;53.612;7.278;2022-09-13T05:34:48;5.83;;;1.50;;
5995;SDS011;3026;53.612;7.278;2022-09-13T05:37:14;4.90;;;1.10;;
5995;SDS011;3026;53.612;7.278;2022-09-13T05:39:42;3.03;;;1.60;;
5995;SDS011;3026;53.612;7.278;2022-09-13T05:42:09;4.53;;;0.90;;
5995;SDS011;3026;53.612;7.278;2022-09-13T05:44:35;3.50;;;1.00;;
5995;SDS011;3026;53.612;7.278;2022-09-13T05:47:03;3.30;;;1.03;;
5995;SDS011;3026;53.612;7.278;2022-09-13T05:49:30;4.47;;;1.07;;
5995;SDS011;3026;53.612;7.278;2022-09-13T05:51:58;6.03;;;1.20;;
5995;SDS011;3026;53.612;7.278;2022-09-13T05:54:25;7.27;;;1.30;;
5995;SDS011;3026;53.612;7.278;2022-09-13T05:56:52;3.70;;;1.27;;
5995;SDS011;3026;53.612;7.278;2022-09-13T05:59:22;2.63;;;0.97;;
5995;SDS011;3026;53.612;7.278;2022-09-13T06:01:48;2.90;;;0.90;;
5995;SDS011;3026;53.612;7.278;2022-09-13T06:04:15;3.50;;;1.10;;
5995;SDS011;3026;53.612;7.278;2022-09-13T06:06:42;4.20;;;0.80;;
5995;SDS011;3026;53.612;7.278;2022-09-13T06:09:10;8.87;;;1.57;;
5995;SDS011;3026;53.612;7.278;2022-09-13T06:11:38;4.70;;;0.90;;
5995;SDS011;3026;53.612;7.278;2022-09-13T06:14:04;2.53;;;1.00;;
5995;SDS011;3026;53.612;7.278;2022-09-13T06:16:31;5.40;;;1.03;;
5995;SDS011;3026;53.612;7.278;2022-09-13T06:18:58;4.97;;;1.80;;
5995;SDS011;3026;53.612;7.278;2022-09-13T06:21:25;5.70;;;1.13;;
5995;SDS011;3026;53.612;7.278;2022-09-13T06:23:52;3.90;;;0.93;;
5995;SDS011;3026;53.612;7.278;2022-09-13T06:26:21;6.47;;;1.10;;
5995;SDS011;3026;53.612;7.278;2022-09-13T06:28:50;3.93;;;0.90;;
5995;SDS011;3026;53.612;7.278;2022-09-13T06:31:18;6.33;;;1.30;;
5995;SDS011;3026;53.612;7.278;2022-09-13T06:33:46;6.50;;;1.40;;
5995;SDS011;3026;53.612;7.278;2022-09-13T06:36:14;7.37;;;1.20;;
5995;SDS011;3026;53.612;7.278;2022-09-13T06:38:42;4.73;;;1.40;;
5995;SDS011;3026;53.612;7.278;2022-09-13T06:41:12;7.07;;;1.83;;
5995;SDS011;3026;53.612;7.278;2022-09-13T06:43:42;5.73;;;1.33;;
5995;SDS011;3026;53.612;7.278;2022-09-13T06:46:09;6.00;;;1.40;;
5995;SDS011;3026;53.612;7.278;2022-09-13T06:48:37;6.90;;;1.43;;
5995;SDS011;3026;53.612;7.278;2022-09-13T06:51:07;9.70;;;1.43;;
5995;SDS011;3026;53.612;7.278;2022-09-13T06:53:36;5.20;;;1.33;;
5995;SDS011;3026;53.612;7.278;2022-09-13T06:56:04;8.53;;;1.80;;
5995;SDS011;3026;53.612;7.278;2022-09-13T06:58:33;7.47;;;1.43;;
5995;SDS011;3026;53.612;7.278;2022-09-13T07:01:09;6.37;;;1.53;;
5995;SDS011;3026;53.612;7.278;2022-09-13T07:03:39;6.40;;;1.70;;
5995;SDS011;3026;53.612;7.278;2022-09-13T07:06:07;9.40;;;1.90;;
5995;SDS011;3026;53.612;7.278;2022-09-13T07:08:35;5.60;;;1.30;;
5995;SDS011;3026;53.612;7.278;2022-09-13T07:11:02;3.37;;;1.30;;
5995;SDS011;3026;53.612;7.278;2022-09-13T07:13:29;6.77;;;1.07;;
5995;SDS011;3026;53.612;7.278;2022-09-13T07:16:00;8.07;;;1.53;;
5995;SDS011;3026;53.612;7.278;2022-09-13T07:18:29;9.87;;;1.47;;
5995;SDS011;3026;53.612;7.278;2022-09-13T07:20:59;5.07;;;1.60;;
5995;SDS011;3026;53.612;7.278;2022-09-13T07:23:28;4.80;;;1.10;;
5995;SDS011;3026;53.612;7.278;2022-09-13T07:25:56;5.30;;;1.13;;
5995;SDS011;3026;53.612;7.278;2022-09-13T07:28:26;8.93;;;1.47;;
5995;SDS011;3026;53.612;7.278;2022-09-13T07:30:55;4.37;;;1.10;;
5995;SDS011;3026;53.612;7.278;2022-09-13T07:33:24;3.67;;;1.30;;
5995;SDS011;3026;53.612;7.278;2022-09-13T07:35:55;5.40;;;1.37;;
5995;SDS011;3026;53.612;7.278;2022-09-13T07:38:24;4.93;;;1.10;;
5995;SDS011;3026;53.612;7.278;2022-09-13T07:40:53;6.10;;;1.70;;
5995;SDS011;3026;53.612;7.278;2022-09-13T07:43:22;7.27;;;1.40;;
5995;SDS011;3026;53.612;7.278;2022-09-13T07:45:55;3.73;;;1.27;;
5995;SDS011;3026;53.612;7.278;2022-09-13T07:48:23;5.63;;;1.37;;
5995;SDS011;3026;53.612;7.278;2022-09-13T07:50:56;7.27;;;1.30;;
5995;SDS011;3026;53.612;7.278;2022-09-13T07:53:24;4.80;;;0.83;;
5995;SDS011;3026;53.612;7.278;2022-09-13T07:55:51;6.87;;;1.20;;
5995;SDS011;3026;53.612;7.278;2022-09-13T07:58:20;6.37;;;1.77;;
5995;SDS011;3026;53.612;7.278;2022-09-13T08:00:47;6.50;;;1.30;;
5995;SDS011;3026;53.612;7.278;2022-09-13T08:03:14;4.37;;;1.60;;
5995;SDS011;3026;53.612;7.278;2022-09-13T08:05:40;4.73;;;1.50;;
5995;SDS011;3026;53.612;7.278;2022-09-13T08:08:09;6.20;;;1.23;;
5995;SDS011;3026;53.612;7.278;2022-09-13T08:10:36;6.60;;;1.90;;
5995;SDS011;3026;53.612;7.278;2022-09-13T08:13:02;5.97;;;1.30;;
5995;SDS011;3026;53.612;7.278;2022-09-13T08:15:29;6.63;;;2.10;;
5995;SDS011;3026;53.612;7.278;2022-09-13T08:17:56;6.40;;;1.47;;
5995;SDS011;3026;53.612;7.278;2022-09-13T08:20:22;5.27;;;1.47;;
5995;SDS011;3026;53.612;7.278;2022-09-13T08:22:49;5.30;;;1.30;;
5995;SDS011;3026;53.612;7.278;2022-09-13T08:25:18;3.73;;;1.07;;
5995;SDS011;3026;53.612;7.278;2022-09-13T08:27:44;5.73;;;1.00;;
5995;SDS011;3026;53.612;7.278;2022-09-13T08:30:11;4.70;;;1.27;;
5995;SDS011;3026;53.612;7.278;2022-09-13T08:32:38;5.70;;;1.07;;
5995;SDS011;3026;53.612;7.278;2022-09-13T08:35:05;4.70;;;1.20;;
5995;SDS011;3026;53.612;7.278;2022-09-13T08:37:32;3.13;;;1.30;;
5995;SDS011;3026;53.612;7.278;2022-09-13T08:39:59;9.77;;;1.40;;
5995;SDS011;3026;53.612;7.278;2022-09-13T08:42:42;5.43;;;1.20;;
5995;SDS011;3026;53.612;7.278;2022-09-13T08:45:16;2.20;;;1.13;;
5995;SDS011;3026;53.612;7.278;2022-09-13T08:47:45;3.37;;;1.00;;
5995;SDS011;3026;53.612;7.278;2022-09-13T08:50:18;7.50;;;1.13;;
5995;SDS011;3026;53.612;7.278;2022-09-13T08:53:00;5.33;;;1.10;;
5995;SDS011;3026;53.612;7.278;2022-09-13T08:55:35;11.63;;;1.60;;
5995;SDS011;3026;53.612;7.278;2022-09-13T08:58:27;4.23;;;0.97;;
5995;SDS011;3026;53.612;7.278;2022-09-13T09:01:02;4.73;;;1.30;;
5995;SDS011;3026;53.612;7.278;2022-09-13T09:03:35;6.83;;;1.50;;
5995;SDS011;3026;53.612;7.278;2022-09-13T09:06:10;5.27;;;1.43;;
5995;SDS011;3026;53.612;7.278;2022-09-13T09:08:41;4.13;;;1.13;;
5995;SDS011;3026;53.612;7.278;2022-09-13T09:11:19;3.67;;;1.23;;
5995;SDS011;3026;53.612;7.278;2022-09-13T09:13:58;6.70;;;1.27;;
5995;SDS011;3026;53.612;7.278;2022-09-13T09:16:33;5.87;;;1.20;;
5995;SDS011;3026;53.612;7.278;2022-09-13T09:19:08;6.50;;;1.50;;
5995;SDS011;3026;53.612;7.278;2022-09-13T09:21:42;3.27;;;0.83;;
5995;SDS011;3026;53.612;7.278;2022-09-13T09:24:15;5.63;;;1.30;;
5995;SDS011;3026;53.612;7.278;2022-09-13T09:26:45;2.53;;;1.20;;
5995;SDS011;3026;53.612;7.278;2022-09-13T09:29:16;3.97;;;0.93;;
5995;SDS011;3026;53.612;7.278;2022-09-13T09:31:47;6.40;;;1.30;;
5995;SDS011;3026;53.612;7.278;2022-09-13T09:34:25;6.97;;;1.63;;
5995;SDS011;3026;53.612;7.278;2022-09-13T09:37:07;2.57;;;1.40;;
5995;SDS011;3026;53.612;7.278;2022-09-13T09:39:41;5.17;;;1.13;;
5995;SDS011;3026;53.612;7.278;2022-09-13T09:42:10;4.83;;;1.13;;
5995;SDS011;3026;53.612;7.278;2022-09-13T09:44:45;6.07;;;1.10;;
5995;SDS011;3026;53.612;7.278;2022-09-13T09:47:16;4.37;;;1.17;;
5995;SDS011;3026;53.612;7.278;2022-09-13T09:49:45;7.13;;;0.93;;
5995;SDS011;3026;53.612;7.278;2022-09-13T09:52:34;5.10;;;1.03;;
5995;SDS011;3026;53.612;7.278;2022-09-13T09:55:16;4.63;;;1.00;;
5995;SDS011;3026;53.612;7.278;2022-09-13T09:57:48;5.37;;;1.00;;
5995;SDS011;3026;53.612;7.278;2022-09-13T10:00:19;4.57;;;1.10;;
5995;SDS011;3026;53.612;7.278;2022-09-13T10:02:48;6.43;;;1.30;;
5995;SDS011;3026;53.612;7.278;2022-09-13T10:05:18;6.13;;;1.40;;
5995;SDS011;3026;53.612;7.278;2022-09-13T10:07:51;3.23;;;1.33;;
5995;SDS011;3026;53.612;7.278;2022-09-13T10:10:23;4.87;;;1.20;;
5995;SDS011;3026;53.612;7.278;2022-09-13T10:12:51;6.13;;;1.20;;
5995;SDS011;3026;53.612;7.278;2022-09-13T10:15:23;3.30;;;1.33;;
5995;SDS011;3026;53.612;7.278;2022-09-13T10:18:00;4.43;;;1.47;;
5995;SDS011;3026;53.612;7.278;2022-09-13T10:20:29;6.90;;;1.30;;
5995;SDS011;3026;53.612;7.278;2022-09-13T10:28:34;5.83;;;1.30;;
5995;SDS011;3026;53.612;7.278;2022-09-13T10:31:08;4.90;;;1.00;;
5995;SDS011;3026;53.612;7.278;2022-09-13T10:33:38;5.07;;;1.43;;
5995;SDS011;3026;53.612;7.278;2022-09-13T10:36:11;4.27;;;1.23;;
5995;SDS011;3026;53.612;7.278;2022-09-13T10:38:41;7.50;;;1.30;;
5995;SDS011;3026;53.612;7.278;2022-09-13T10:41:19;5.40;;;1.00;;
5995;SDS011;3026;53.612;7.278;2022-09-13T10:43:49;4.47;;;1.57;;
5995;SDS011;3026;53.612;7.278;2022-09-13T10:46:23;5.30;;;1.77;;
5995;SDS011;3026;53.612;7.278;2022-09-13T10:48:51;7.20;;;1.10;;
5995;SDS011;3026;53.612;7.278;2022-09-13T10:51:28;6.23;;;1.37;;
5995;SDS011;3026;53.612;7.278;2022-09-13T10:54:06;6.40;;;1.60;;
5995;SDS011;3026;53.612;7.278;2022-09-13T10:56:44;4.33;;;1.70;;
5995;SDS011;3026;53.612;7.278;2022-09-13T10:59:15;10.87;;;1.70;;
5995;SDS011;3026;53.612;7.278;2022-09-13T11:01:51;5.73;;;1.50;;
5995;SDS011;3026;53.612;7.278;2022-09-13T11:04:43;8.80;;;2.17;;
5995;SDS011;3026;53.612;7.278;2022-09-13T11:07:34;7.93;;;1.40;;
5995;SDS011;3026;53.612;7.278;2022-09-13T11:10:19;5.30;;;1.67;;
5995;SDS011;3026;53.612;7.278;2022-09-13T11:12:53;7.17;;;1.97;;
5995;SDS011;3026;53.612;7.278;2022-09-13T11:15:30;7.00;;;1.63;;
5995;SDS011;3026;53.612;7.278;2022-09-13T11:18:18;6.87;;;1.67;;
5995;SDS011;3026;53.612;7.278;2022-09-13T11:21:00;11.33;;;1.57;;
5995;SDS011;3026;53.612;7.278;2022-09-13T11:23:41;5.13;;;1.80;;
5995;SDS011;3026;53.612;7.278;2022-09-13T11:26:28;3.60;;;1.30;;
5995;SDS011;3026;53.612;7.278;2022-09-13T11:29:09;7.60;;;1.73;;
5995;SDS011;3026;53.612;7.278;2022-09-13T11:31:47;9.90;;;1.83;;
5995;SDS011;3026;53.612;7.278;2022-09-13T11:34:25;12.03;;;1.67;;
5995;SDS011;3026;53.612;7.278;2022-09-13T11:37:10;5.37;;;1.57;;
5995;SDS011;3026;53.612;7.278;2022-09-13T11:40:02;8.60;;;1.40;;
5995;SDS011;3026;53.612;7.278;2022-09-13T11:42:44;5.33;;;1.60;;
5995;SDS011;3026;53.612;7.278;2022-09-13T11:45:19;5.87;;;1.50;;
5995;SDS011;3026;53.612;7.278;2022-09-13T11:47:54;5.67;;;1.77;;
5995;SDS011;3026;53.612;7.278;2022-09-13T11:50:33;10.50;;;2.07;;
5995;SDS011;3026;53.612;7.278;2022-09-13T11:53:13;7.50;;;1.23;;
5995;SDS011;3026;53.612;7.278;2022-09-13T11:55:50;6.37;;;1.33;;
5995;SDS011;3026;53.612;7.278;2022-09-13T11:58:22;5.50;;;1.60;;
5995;SDS011;3026;53.612;7.278;2022-09-13T12:00:56;6.27;;;1.20;;
5995;SDS011;3026;53.612;7.278;2022-09-13T12:03:26;5.10;;;1.67;;
5995;SDS011;3026;53.612;7.278;2022-09-13T12:06:01;5.40;;;1.60;;
5995;SDS011;3026;53.612;7.278;2022-09-13T12:08:34;5.97;;;1.60;;
5995;SDS011;3026;53.612;7.278;2022-09-13T12:11:03;4.97;;;1.20;;
5995;SDS011;3026;53.612;7.278;2022-09-13T12:13:38;4.53;;;1.30;;
5995;SDS011;3026;53.612;7.278;2022-09-13T12:16:08;10.10;;;1.40;;
5995;SDS011;3026;53.612;7.278;2022-09-13T12:18:39;6.17;;;1.47;;
5995;SDS011;3026;53.612;7.278;2022-09-13T12:21:11;4.50;;;1.43;;
5995;SDS011;3026;53.612;7.278;2022-09-13T12:23:45;2.90;;;1.20;;
5995;SDS011;3026;53.612;7.278;2022-09-13T12:26:18;4.97;;;1.33;;
5995;SDS011;3026;53.612;7.278;2022-09-13T12:28:49;1.83;;;1.13;;
5995;SDS011;3026;53.612;7.278;2022-09-13T12:31:21;3.63;;;1.00;;
5995;SDS011;3026;53.612;7.278;2022-09-13T12:33:49;3.90;;;1.30;;
5995;SDS011;3026;53.612;7.278;2022-09-13T12:39:25;6.17;;;1.47;;
5995;SDS011;3026;53.612;7.278;2022-09-13T12:42:31;4.83;;;1.10;;
5995;SDS011;3026;53.612;7.278;2022-09-13T12:45:15;5.00;;;1.30;;
5995;SDS011;3026;53.612;7.278;2022-09-13T12:50:57;4.03;;;1.03;;
5995;SDS011;3026;53.612;7.278;2022-09-13T12:56:40;2.23;;;1.07;;
5995;SDS011;3026;53.612;7.278;2022-09-13T12:59:21;4.17;;;1.43;;
5995;SDS011;3026;53.612;7.278;2022-09-13T13:02:00;5.53;;;1.37;;
5995;SDS011;3026;53.612;7.278;2022-09-13T13:04:29;6.80;;;1.63;;
5995;SDS011;3026;53.612;7.278;2022-09-13T13:07:00;3.97;;;1.17;;
5995;SDS011;3026;53.612;7.278;2022-09-13T13:09:33;5.63;;;1.50;;
5995;SDS011;3026;53.612;7.278;2022-09-13T13:12:05;4.17;;;1.10;;
5995;SDS011;3026;53.612;7.278;2022-09-13T13:14:47;6.37;;;1.17;;
5995;SDS011;3026;53.612;7.278;2022-09-13T13:23:30;11.93;;;1.43;;
5995;SDS011;3026;53.612;7.278;2022-09-13T13:26:01;5.63;;;1.30;;
5995;SDS011;3026;53.612;7.278;2022-09-13T13:28:49;5.57;;;1.53;;
5995;SDS011;3026;53.612;7.278;2022-09-13T13:31:39;5.07;;;1.53;;
5995;SDS011;3026;53.612;7.278;2022-09-13T13:37:00;6.70;;;1.40;;
5995;SDS011;3026;53.612;7.278;2022-09-13T13:39:33;4.90;;;1.00;;
5995;SDS011;3026;53.612;7.278;2022-09-13T13:42:10;6.33;;;1.30;;
5995;SDS011;3026;53.612;7.278;2022-09-13T13:44:55;6.87;;;0.93;;
5995;SDS011;3026;53.612;7.278;2022-09-13T13:53:40;7.27;;;1.13;;
5995;SDS011;3026;53.612;7.278;2022-09-13T13:56:23;3.63;;;1.30;;
5995;SDS011;3026;53.612;7.278;2022-09-13T13:58:57;4.23;;;1.30;;
5995;SDS011;3026;53.612;7.278;2022-09-13T14:01:30;4.37;;;1.20;;
5995;SDS011;3026;53.612;7.278;2022-09-13T14:07:04;2.90;;;0.73;;
5995;SDS011;3026;53.612;7.278;2022-09-13T14:09:54;4.83;;;1.33;;
5995;SDS011;3026;53.612;7.278;2022-09-13T14:12:33;2.33;;;1.00;;
5995;SDS011;3026;53.612;7.278;2022-09-13T14:15:19;4.70;;;1.23;;
5995;SDS011;3026;53.612;7.278;2022-09-13T14:18:07;2.17;;;1.10;;
5995;SDS011;3026;53.612;7.278;2022-09-13T14:20:56;6.53;;;1.10;;
5995;SDS011;3026;53.612;7.278;2022-09-13T14:23:26;4.03;;;1.20;;
5995;SDS011;3026;53.612;7.278;2022-09-13T14:25:54;4.90;;;1.20;;
5995;SDS011;3026;53.612;7.278;2022-09-13T14:28:22;5.43;;;1.13;;
5995;SDS011;3026;53.612;7.278;2022-09-13T14:30:55;3.00;;;1.10;;
5995;SDS011;3026;53.612;7.278;2022-09-13T14:33:24;6.20;;;1.17;;
5995;SDS011;3026;53.612;7.278;2022-09-13T14:36:00;2.43;;;1.00;;
5995;SDS011;3026;53.612;7.278;2022-09-13T14:38:30;3.60;;;0.90;;
5995;SDS011;3026;53.612;7.278;2022-09-13T14:41:01;5.47;;;1.20;;
5995;SDS011;3026;53.612;7.278;2022-09-13T14:43:38;3.23;;;1.23;;
5995;SDS011;3026;53.612;7.278;2022-09-13T14:46:07;7.63;;;2.10;;
5995;SDS011;3026;53.612;7.278;2022-09-13T14:48:38;6.43;;;1.03;;
5995;SDS011;3026;53.612;7.278;2022-09-13T14:51:10;4.70;;;1.13;;
5995;SDS011;3026;53.612;7.278;2022-09-13T14:53:43;5.10;;;1.13;;
5995;SDS011;3026;53.612;7.278;2022-09-13T14:56:15;5.50;;;1.40;;
5995;SDS011;3026;53.612;7.278;2022-09-13T14:58:45;3.50;;;1.00;;
5995;SDS011;3026;53.612;7.278;2022-09-13T15:01:16;6.10;;;1.00;;
5995;SDS011;3026;53.612;7.278;2022-09-13T15:03:47;2.97;;;1.07;;
5995;SDS011;3026;53.612;7.278;2022-09-13T15:06:20;3.73;;;1.03;;
5995;SDS011;3026;53.612;7.278;2022-09-13T15:08:49;3.93;;;0.83;;
5995;SDS011;3026;53.612;7.278;2022-09-13T15:11:27;4.53;;;1.20;;
5995;SDS011;3026;53.612;7.278;2022-09-13T15:16:53;3.23;;;0.90;;
5995;SDS011;3026;53.612;7.278;2022-09-13T15:19:26;4.67;;;1.10;;
5995;SDS011;3026;53.612;7.278;2022-09-13T15:22:04;4.20;;;1.00;;
5995;SDS011;3026;53.612;7.278;2022-09-13T15:24:41;5.47;;;1.00;;
5995;SDS011;3026;53.612;7.278;2022-09-13T15:27:20;6.80;;;1.10;;
5995;SDS011;3026;53.612;7.278;2022-09-13T15:29:51;6.87;;;1.53;;
5995;SDS011;3026;53.612;7.278;2022-09-13T15:32:29;4.70;;;0.90;;
5995;SDS011;3026;53.612;7.278;2022-09-13T15:34:58;2.30;;;0.87;;
5995;SDS011;3026;53.612;7.278;2022-09-13T15:37:31;5.10;;;1.33;;
5995;SDS011;3026;53.612;7.278;2022-09-13T15:40:04;3.53;;;1.07;;
5995;SDS011;3026;53.612;7.278;2022-09-13T15:42:37;1.87;;;0.57;;
5995;SDS011;3026;53.612;7.278;2022-09-13T15:45:04;5.53;;;0.67;;
5995;SDS011;3026;53.612;7.278;2022-09-13T15:47:32;4.50;;;1.00;;
5995;SDS011;3026;53.612;7.278;2022-09-13T15:49:59;6.43;;;0.90;;
5995;SDS011;3026;53.612;7.278;2022-09-13T15:52:26;3.10;;;0.90;;
5995;SDS011;3026;53.612;7.278;2022-09-13T15:54:53;4.00;;;0.93;;
5995;SDS011;3026;53.612;7.278;2022-09-13T15:57:21;2.80;;;0.90;;
5995;SDS011;3026;53.612;7.278;2022-09-13T15:59:50;3.13;;;0.90;;
5995;SDS011;3026;53.612;7.278;2022-09-13T16:02:19;9.93;;;1.53;;
5995;SDS011;3026;53.612;7.278;2022-09-13T16:04:51;11.03;;;3.20;;
5995;SDS011;3026;53.612;7.278;2022-09-13T16:07:18;2.93;;;1.23;;
5995;SDS011;3026;53.612;7.278;2022-09-13T16:09:45;5.70;;;2.13;;
5995;SDS011;3026;53.612;7.278;2022-09-13T16:12:13;5.17;;;1.97;;
5995;SDS011;3026;53.612;7.278;2022-09-13T16:14:41;5.33;;;1.27;;
5995;SDS011;3026;53.612;7.278;2022-09-13T16:17:10;2.87;;;0.67;;
5995;SDS011;3026;53.612;7.278;2022-09-13T16:19:38;5.07;;;1.47;;
5995;SDS011;3026;53.612;7.278;2022-09-13T16:22:06;3.13;;;1.10;;
5995;SDS011;3026;53.612;7.278;2022-09-13T16:24:33;3.47;;;1.00;;